createdAt,value
2018-11-22T00:01:55.125Z,101472.36
2018-11-22T00:04:23.156Z,101476.85
2018-11-22T00:06:51.229Z,101477.28
2018-11-22T00:09:19.263Z,101478.06
2018-11-22T00:11:47.331Z,101484.75
2018-11-22T00:14:15.409Z,101473.97
2018-11-22T00:16:43.460Z,101478.12
2018-11-22T00:19:11.540Z,101475.02
2018-11-22T00:21:39.568Z,101484.56
2018-11-22T00:24:07.637Z,101486.27
2018-11-22T00:26:35.682Z,101490.83
2018-11-22T00:29:03.780Z,101488.21
2018-11-22T00:31:31.866Z,101490.41
2018-11-22T00:33:59.913Z,101487.63
2018-11-22T00:36:27.995Z,101485.55
2018-11-22T00:38:56.023Z,101492.27
2018-11-22T00:41:24.083Z,101496.72
2018-11-22T00:43:52.119Z,101491.23
2018-11-22T00:46:20.209Z,101498.24
2018-11-22T00:48:48.240Z,101492.80
2018-11-22T00:51:16.307Z,101496.93
2018-11-22T00:53:44.341Z,101502.21
2018-11-22T00:56:12.475Z,101504.48
2018-11-22T00:58:40.507Z,101503.14
2018-11-22T01:01:08.570Z,101509.29
2018-11-22T01:03:36.612Z,101507.13
2018-11-22T01:06:04.858Z,101506.71
2018-11-22T01:08:32.886Z,101500.02
2018-11-22T01:11:00.950Z,101502.91
2018-11-22T01:13:28.984Z,101505.33
2018-11-22T01:15:57.071Z,101494.27
2018-11-22T01:18:25.124Z,101497.35
2018-11-22T01:20:53.202Z,101496.26
2018-11-22T01:23:21.290Z,101502.91
2018-11-22T01:25:49.326Z,101499.36
2018-11-22T01:28:17.414Z,101498.37
2018-11-22T01:30:45.470Z,101496.09
2018-11-22T01:33:13.555Z,101483.22
2018-11-22T01:35:41.639Z,101486.89
2018-11-22T01:38:09.663Z,101492.77
2018-11-22T01:40:37.792Z,101492.91
2018-11-22T01:43:05.939Z,101497.66
2018-11-22T01:45:34.019Z,101488.77
2018-11-22T01:48:02.046Z,101496.77
2018-11-22T01:50:30.079Z,101497.91
2018-11-22T01:52:58.167Z,101493.19
2018-11-22T01:55:26.262Z,101492.27
2018-11-22T01:57:54.327Z,101487.60
2018-11-22T02:00:24.514Z,101483.54
2018-11-22T02:02:52.592Z,101473.78
2018-11-22T02:05:22.002Z,101475.59
2018-11-22T02:07:50.193Z,101478.17
2018-11-22T02:10:19.381Z,101485.27
2018-11-22T02:12:47.452Z,101476.86
2018-11-22T02:15:17.003Z,101477.75
2018-11-22T02:17:45.131Z,101480.58
2018-11-22T02:20:15.172Z,101488.06
2018-11-22T02:22:43.497Z,101480.04
2018-11-22T02:25:12.548Z,101483.12
2018-11-22T02:27:40.613Z,101479.11
2018-11-22T02:30:10.986Z,101477.89
2018-11-22T02:32:39.073Z,101478.43
2018-11-22T02:35:08.380Z,101473.63
2018-11-22T02:37:36.418Z,101473.83
2018-11-22T02:40:04.972Z,101478.39
2018-11-22T02:42:33.000Z,101478.22
2018-11-22T02:45:01.124Z,101471.22
2018-11-22T02:47:29.188Z,101467.11
2018-11-22T02:49:57.269Z,101470.52
2018-11-22T02:52:25.329Z,101476.54
2018-11-22T02:54:53.415Z,101463.25
2018-11-22T02:57:21.527Z,101463.19
2018-11-22T02:59:49.575Z,101461.16
2018-11-22T03:02:17.607Z,101459.08
2018-11-22T03:04:45.676Z,101464.73
2018-11-22T03:07:13.721Z,101463.27
2018-11-22T03:09:41.811Z,101456.16
2018-11-22T03:12:09.881Z,101461.52
2018-11-22T03:14:37.909Z,101468.94
2018-11-22T03:17:06.024Z,101455.67
2018-11-22T03:19:34.167Z,101465.09
2018-11-22T03:22:02.201Z,101461.17
2018-11-22T03:24:30.263Z,101461.06
2018-11-22T03:26:58.291Z,101464.20
2018-11-22T03:29:26.392Z,101469.00
2018-11-22T03:31:54.418Z,101461.45
2018-11-22T03:34:22.474Z,101451.90
2018-11-22T03:36:50.541Z,101450.10
2018-11-22T03:39:18.653Z,101452.31
2018-11-22T03:41:46.735Z,101456.17
2018-11-22T03:44:14.811Z,101459.12
2018-11-22T03:46:42.882Z,101453.68
2018-11-22T03:49:10.926Z,101463.31
2018-11-22T03:51:39.005Z,101457.77
2018-11-22T03:54:07.076Z,101459.86
2018-11-22T03:56:35.114Z,101459.63
2018-11-22T03:59:03.202Z,101459.97
2018-11-22T04:01:31.288Z,101466.87
2018-11-22T04:03:59.356Z,101457.36
2018-11-22T04:06:27.432Z,101459.39
2018-11-22T04:08:55.477Z,101459.26
2018-11-22T04:11:23.552Z,101460.98
2018-11-22T04:13:51.599Z,101458.20
2018-11-22T04:16:19.665Z,101452.38
2018-11-22T04:18:47.677Z,101455.53
2018-11-22T04:21:15.748Z,101466.12
2018-11-22T04:23:43.783Z,101460.39
2018-11-22T04:26:11.872Z,101455.67
2018-11-22T04:28:39.915Z,101456.00
2018-11-22T04:31:07.941Z,101452.22
2018-11-22T04:33:35.995Z,101447.27
2018-11-22T04:36:04.106Z,101446.73
2018-11-22T04:38:32.175Z,101450.98
2018-11-22T04:41:00.181Z,101453.69
2018-11-22T04:43:28.219Z,101462.36
2018-11-22T04:45:56.280Z,101464.36
2018-11-22T04:48:24.316Z,101460.76
2018-11-22T04:50:52.394Z,101455.16
2018-11-22T04:53:20.440Z,101451.33
2018-11-22T04:55:48.540Z,101456.69
2018-11-22T04:58:16.674Z,101454.79
2018-11-22T05:00:44.705Z,101450.41
2018-11-22T05:03:12.903Z,101452.23
2018-11-22T05:05:41.028Z,101447.74
2018-11-22T05:08:09.118Z,101445.08
2018-11-22T05:10:37.152Z,101458.98
2018-11-22T05:13:05.298Z,101454.91
2018-11-22T05:15:33.350Z,101462.72
2018-11-22T05:18:01.390Z,101450.40
2018-11-22T05:20:29.463Z,101449.52
2018-11-22T05:22:57.509Z,101450.40
2018-11-22T05:25:25.578Z,101450.30
2018-11-22T05:27:53.602Z,101448.39
2018-11-22T05:30:23.258Z,101441.92
2018-11-22T05:32:51.307Z,101449.45
2018-11-22T05:35:19.816Z,101449.88
2018-11-22T05:37:47.893Z,101453.38
2018-11-22T05:40:35.054Z,101451.54
2018-11-22T05:43:03.191Z,101462.82
2018-11-22T05:45:31.545Z,101460.01
2018-11-22T05:47:59.615Z,101461.78
2018-11-22T05:50:28.915Z,101457.20
2018-11-22T05:52:58.566Z,101461.13
2018-11-22T05:55:26.639Z,101460.33
2018-11-22T05:57:54.929Z,101462.95
2018-11-22T06:00:24.547Z,101457.25
2018-11-22T06:02:52.899Z,101467.94
2018-11-22T06:05:22.433Z,101462.21
2018-11-22T06:07:50.693Z,101456.42
2018-11-22T06:10:22.983Z,101464.69
2018-11-22T06:12:51.752Z,101458.13
2018-11-22T06:15:20.051Z,101459.86
2018-11-22T06:17:48.821Z,101473.51
2018-11-22T06:20:18.456Z,101459.86
2018-11-22T06:22:46.596Z,101465.56
2018-11-22T06:25:15.852Z,101461.63
2018-11-22T06:27:44.121Z,101471.16
2018-11-22T06:30:32.457Z,101467.95
2018-11-22T06:33:01.668Z,101459.27
2018-11-22T06:35:30.424Z,101472.20
2018-11-22T06:37:58.750Z,101472.20
2018-11-22T06:40:26.820Z,101471.31
2018-11-22T06:42:55.778Z,101472.32
2018-11-22T06:45:25.334Z,101467.23
2018-11-22T06:47:53.361Z,101472.89
2018-11-22T06:50:22.295Z,101472.94
2018-11-22T06:52:50.340Z,101469.48
2018-11-22T06:55:19.984Z,101479.89
2018-11-22T06:57:48.041Z,101480.55
2018-11-22T07:00:17.780Z,101478.35
2018-11-22T07:02:46.228Z,101474.66
2018-11-22T07:05:15.040Z,101473.73
2018-11-22T07:07:43.130Z,101482.51
2018-11-22T07:10:12.501Z,101483.49
2018-11-22T07:12:40.628Z,101481.49
2018-11-22T07:15:09.378Z,101489.14
2018-11-22T07:17:37.688Z,101489.69
2018-11-22T07:20:08.445Z,101485.95
2018-11-22T07:22:36.503Z,101481.51
2018-11-22T07:25:05.972Z,101486.66
2018-11-22T07:27:38.261Z,101487.63
2018-11-22T07:30:02.078Z,101493.06
2018-11-22T07:32:30.162Z,101487.14
2018-11-22T07:34:58.203Z,101488.16
2018-11-22T07:37:26.286Z,101485.44
2018-11-22T07:39:54.367Z,101497.41
2018-11-22T07:42:22.432Z,101489.89
2018-11-22T07:45:11.439Z,101492.91
2018-11-22T07:47:39.789Z,101502.30
2018-11-22T07:50:09.731Z,101492.91
2018-11-22T07:52:37.797Z,101494.64
2018-11-22T07:55:08.039Z,101498.97
2018-11-22T07:57:36.045Z,101492.03
2018-11-22T08:00:04.925Z,101492.80
2018-11-22T08:02:32.972Z,101499.18
2018-11-22T08:05:01.016Z,101503.56
2018-11-22T08:07:29.104Z,101498.80
2018-11-22T08:09:57.170Z,101497.35
2018-11-22T08:12:25.998Z,101492.97
2018-11-22T08:14:53.323Z,101496.36
2018-11-22T08:17:21.386Z,101492.50
2018-11-22T08:19:49.452Z,101493.67
2018-11-22T08:22:17.476Z,101487.50
2018-11-22T08:24:45.568Z,101491.95
2018-11-22T08:27:13.601Z,101497.19
2018-11-22T08:29:41.672Z,101502.43
2018-11-22T08:32:09.728Z,101502.58
2018-11-22T08:34:37.802Z,101498.91
2018-11-22T08:37:05.963Z,101501.19
2018-11-22T08:39:34.062Z,101506.88
2018-11-22T08:42:02.127Z,101507.17
2018-11-22T08:44:30.199Z,101500.53
2018-11-22T08:46:58.324Z,101510.75
2018-11-22T08:49:26.363Z,101523.59
2018-11-22T08:51:54.436Z,101516.02
2018-11-22T08:54:22.519Z,101518.13
2018-11-22T08:56:50.597Z,101524.19
2018-11-22T08:59:18.681Z,101518.59
2018-11-22T09:01:47.565Z,101515.25
2018-11-22T09:04:15.670Z,101515.87
2018-11-22T09:06:43.709Z,101518.02
2018-11-22T09:09:12.381Z,101512.09
2018-11-22T09:11:41.010Z,101508.22
2018-11-22T09:14:09.041Z,101511.59
2018-11-22T09:16:37.130Z,101511.31
2018-11-22T09:19:05.195Z,101507.60
2018-11-22T09:21:33.296Z,101509.79
2018-11-22T09:24:01.318Z,101505.47
2018-11-22T09:26:29.433Z,101511.27
2018-11-22T09:28:57.478Z,101512.95
2018-11-22T09:31:25.572Z,101507.31
2018-11-22T09:33:53.553Z,101501.85
2018-11-22T09:36:21.652Z,101503.04
2018-11-22T09:38:49.716Z,101502.78
2018-11-22T09:41:17.762Z,101508.58
2018-11-22T09:43:45.842Z,101505.74
2018-11-22T09:46:13.921Z,101503.05
2018-11-22T09:48:42.096Z,101502.92
2018-11-22T09:51:10.110Z,101499.79
2018-11-22T09:53:38.151Z,101496.77
2018-11-22T09:56:06.540Z,101496.52
2018-11-22T09:58:34.595Z,101495.54
2018-11-22T10:01:02.667Z,101494.75
2018-11-22T10:03:30.763Z,101494.77
2018-11-22T10:05:58.856Z,101492.92
2018-11-22T10:08:46.011Z,101494.08
2018-11-22T10:11:14.093Z,101494.41
2018-11-22T10:13:42.199Z,101490.40
2018-11-22T10:16:10.257Z,101497.44
2018-11-22T10:18:39.026Z,101492.58
2018-11-22T10:21:07.089Z,101495.16
2018-11-22T10:23:35.193Z,101497.38
2018-11-22T10:26:03.235Z,101494.32
2018-11-22T10:28:31.306Z,101487.43
2018-11-22T10:30:59.356Z,101490.48
2018-11-22T10:33:27.447Z,101490.38
2018-11-22T10:35:55.539Z,101489.84
2018-11-22T10:38:23.746Z,101492.77
2018-11-22T10:40:51.764Z,101500.71
2018-11-22T10:43:19.794Z,101503.55
2018-11-22T10:45:47.872Z,101498.20
2018-11-22T10:48:15.898Z,101496.55
2018-11-22T10:50:43.973Z,101493.36
2018-11-22T10:53:12.025Z,101494.74
2018-11-22T10:55:41.655Z,101497.77
2018-11-22T10:58:09.700Z,101497.28
2018-11-22T11:00:56.929Z,101499.13
2018-11-22T11:03:44.144Z,101501.78
2018-11-22T11:06:31.436Z,101497.70
2018-11-22T11:08:59.744Z,101496.51
2018-11-22T11:11:27.989Z,101492.37
2018-11-22T11:13:56.226Z,101493.28
2018-11-22T11:16:24.366Z,101495.63
2018-11-22T11:18:52.620Z,101491.92
2018-11-22T11:21:20.696Z,101489.25
2018-11-22T11:23:48.764Z,101495.08
2018-11-22T11:26:16.863Z,101489.04
2018-11-22T11:28:44.913Z,101489.84
2018-11-22T11:31:13.016Z,101491.13
2018-11-22T11:33:41.057Z,101490.06
2018-11-22T11:36:09.247Z,101481.89
2018-11-22T11:38:37.412Z,101483.35
2018-11-22T11:41:05.759Z,101474.68
2018-11-22T11:43:33.876Z,101481.23
2018-11-22T11:46:01.947Z,101477.64
2018-11-22T11:48:30.006Z,101483.52
2018-11-22T11:50:58.064Z,101472.38
2018-11-22T11:53:41.000Z,101466.53
2018-11-22T11:55:54.364Z,101470.64
2018-11-22T11:58:22.407Z,101465.84
2018-11-22T12:00:50.558Z,101467.84
2018-11-22T12:03:18.639Z,101465.62
2018-11-22T12:05:46.837Z,101468.84
2018-11-22T12:08:14.954Z,101469.26
2018-11-22T12:10:43.066Z,101465.62
2018-11-22T12:13:11.114Z,101473.63
2018-11-22T12:15:39.197Z,101467.44
2018-11-22T12:18:07.489Z,101469.05
2018-11-22T12:20:35.528Z,101467.88
2018-11-22T12:23:03.636Z,101466.64
2018-11-22T12:25:31.691Z,101468.55
2018-11-22T12:28:00.996Z,101462.06
2018-11-22T12:30:30.492Z,101460.89
2018-11-22T12:32:59.389Z,101463.94
2018-11-22T12:35:46.571Z,101462.30
2018-11-22T12:38:33.883Z,101464.97
2018-11-22T12:41:01.916Z,101461.52
2018-11-22T12:43:30.025Z,101455.03
2018-11-22T12:45:58.069Z,101457.98
2018-11-22T12:48:26.150Z,101457.55
2018-11-22T12:50:54.243Z,101461.27
2018-11-22T12:53:22.289Z,101454.63
2018-11-22T12:55:50.363Z,101451.46
2018-11-22T12:58:18.458Z,101447.53
2018-11-22T13:00:46.551Z,101443.66
2018-11-22T13:03:14.610Z,101443.16
2018-11-22T13:05:42.673Z,101442.06
2018-11-22T13:08:10.729Z,101437.88
2018-11-22T13:10:38.842Z,101451.00
2018-11-22T13:13:07.056Z,101448.83
2018-11-22T13:15:35.128Z,101446.86
2018-11-22T13:18:03.224Z,101440.37
2018-11-22T13:20:31.268Z,101448.30
2018-11-22T13:22:59.382Z,101445.20
2018-11-22T13:25:27.466Z,101451.70
2018-11-22T13:27:55.616Z,101448.30
2018-11-22T13:30:25.037Z,101441.83
2018-11-22T13:32:53.769Z,101438.89
2018-11-22T13:35:22.001Z,101440.94
2018-11-22T13:37:51.413Z,101444.64
2018-11-22T13:40:19.639Z,101450.05
2018-11-22T13:42:48.692Z,101446.57
2018-11-22T13:45:19.449Z,101443.48
2018-11-22T13:47:48.219Z,101448.98
2018-11-22T13:50:18.726Z,101447.22
2018-11-22T13:52:48.173Z,101441.42
2018-11-22T13:55:16.223Z,101441.48
2018-11-22T13:57:44.332Z,101442.09
2018-11-22T14:00:32.706Z,101451.63
2018-11-22T14:03:19.891Z,101445.05
2018-11-22T14:06:00.291Z,101442.25
2018-11-22T14:08:28.383Z,101440.22
2018-11-22T14:11:04.065Z,101446.87
2018-11-22T14:13:32.164Z,101447.41
2018-11-22T14:16:00.216Z,101444.46
2018-11-22T14:18:28.292Z,101447.43
2018-11-22T14:20:56.344Z,101441.53
2018-11-22T14:23:24.426Z,101445.57
2018-11-22T14:25:52.499Z,101447.72
2018-11-22T14:28:20.594Z,101449.44
2018-11-22T14:30:48.667Z,101451.34
2018-11-22T14:33:16.759Z,101447.83
2018-11-22T14:35:44.798Z,101452.84
2018-11-22T14:38:12.857Z,101449.63
2018-11-22T14:40:40.922Z,101456.55
2018-11-22T14:43:08.978Z,101447.43
2018-11-22T14:45:37.034Z,101452.93
2018-11-22T14:48:05.402Z,101451.25
2018-11-22T14:51:03.903Z,101455.64
2018-11-22T14:53:32.041Z,101447.30
2018-11-22T14:56:00.083Z,101450.80
2018-11-22T14:58:28.189Z,101446.27
2018-11-22T15:00:56.285Z,101449.23
2018-11-22T15:03:24.338Z,101446.38
2018-11-22T15:05:52.416Z,101449.44
2018-11-22T15:08:20.461Z,101447.16
2018-11-22T15:10:48.539Z,101449.84
2018-11-22T15:13:16.585Z,101452.54
2018-11-22T15:15:44.667Z,101453.87
2018-11-22T15:18:12.708Z,101451.75
2018-11-22T15:20:40.806Z,101449.70
2018-11-22T15:23:08.912Z,101460.49
2018-11-22T15:25:36.977Z,101447.55
2018-11-22T15:28:05.070Z,101447.97
2018-11-22T15:30:33.185Z,101448.56
2018-11-22T15:33:01.320Z,101456.06
2018-11-22T15:35:30.333Z,101457.91
2018-11-22T15:37:58.401Z,101453.27
2018-11-22T15:40:26.882Z,101450.53
2018-11-22T15:42:56.373Z,101445.36
2018-11-22T15:45:25.734Z,101449.67
2018-11-22T15:47:53.758Z,101446.57
2018-11-22T15:50:23.176Z,101452.03
2018-11-22T15:52:51.235Z,101452.33
2018-11-22T15:55:21.018Z,101459.56
2018-11-22T15:57:48.958Z,101460.99
2018-11-22T16:00:36.321Z,101455.95
2018-11-22T16:03:04.541Z,101456.98
2018-11-22T16:05:33.099Z,101451.38
2018-11-22T16:08:01.530Z,101456.00
2018-11-22T16:10:31.232Z,101455.14
2018-11-22T16:13:00.940Z,101461.60
2018-11-22T16:15:34.220Z,101460.08
2018-11-22T16:18:02.314Z,101460.37
2018-11-22T16:20:30.374Z,101457.20
2018-11-22T16:22:58.454Z,101458.84
2018-11-22T16:25:26.532Z,101458.15
2018-11-22T16:27:54.639Z,101463.44
2018-11-22T16:30:24.118Z,101470.49
2018-11-22T16:32:52.519Z,101460.13
2018-11-22T16:35:21.388Z,101458.48
2018-11-22T16:37:49.496Z,101450.81
2018-11-22T16:40:36.690Z,101457.36
2018-11-22T16:43:04.968Z,101454.13
2018-11-22T16:45:34.468Z,101452.42
2018-11-22T16:48:04.125Z,101454.98
2018-11-22T16:50:33.168Z,101457.78
2018-11-22T16:53:01.272Z,101456.99
2018-11-22T16:55:29.354Z,101450.53
2018-11-22T16:57:58.786Z,101453.94
2018-11-22T17:00:28.148Z,101448.80
2018-11-22T17:02:57.792Z,101452.31
2018-11-22T17:05:26.081Z,101449.59
2018-11-22T17:07:54.180Z,101448.41
2018-11-22T17:10:23.778Z,101445.70
2018-11-22T17:12:53.253Z,101449.63
2018-11-22T17:15:22.692Z,101451.84
2018-11-22T17:17:51.240Z,101451.74
2018-11-22T17:20:20.163Z,101452.15
2018-11-22T17:22:48.912Z,101455.58
2018-11-22T17:25:18.350Z,101454.83
2018-11-22T17:27:47.463Z,101444.78
2018-11-22T17:30:34.763Z,101456.84
2018-11-22T17:33:02.850Z,101451.98
2018-11-22T17:35:31.447Z,101445.57
2018-11-22T17:38:00.614Z,101451.02
2018-11-22T17:40:47.870Z,101450.13
2018-11-22T17:43:16.022Z,101452.67
2018-11-22T17:45:45.511Z,101445.28
2018-11-22T17:48:13.622Z,101451.14
2018-11-22T17:50:43.141Z,101446.20
2018-11-22T17:53:30.762Z,101449.92
2018-11-22T17:55:58.908Z,101450.53
2018-11-22T17:58:27.573Z,101450.36
2018-11-22T18:00:55.763Z,101450.89
2018-11-22T18:03:23.845Z,101451.48
2018-11-22T18:05:52.447Z,101451.42
2018-11-22T18:08:20.615Z,101447.61
2018-11-22T18:10:48.714Z,101448.73
2018-11-22T18:13:16.805Z,101447.84
2018-11-22T18:16:04.068Z,101452.91
2018-11-22T18:18:32.164Z,101458.78
2018-11-22T18:21:00.221Z,101454.05
2018-11-22T18:23:28.453Z,101444.94
2018-11-22T18:25:56.528Z,101451.30
2018-11-22T18:28:24.595Z,101449.33
2018-11-22T18:30:52.817Z,101448.47
2018-11-22T18:33:20.910Z,101452.97
2018-11-22T18:35:49.052Z,101449.11
2018-11-22T18:38:17.123Z,101450.12
2018-11-22T18:40:45.352Z,101444.77
2018-11-22T18:43:13.466Z,101447.27
2018-11-22T18:45:42.940Z,101449.28
2018-11-22T18:48:12.598Z,101448.30
2018-11-22T18:50:41.113Z,101447.34
2018-11-22T18:53:09.456Z,101446.16
2018-11-22T18:55:37.553Z,101451.31
2018-11-22T18:58:06.250Z,101451.30
2018-11-22T19:00:35.758Z,101449.33
2018-11-22T19:03:05.913Z,101454.81
2018-11-22T19:05:34.011Z,101462.00
2018-11-22T19:08:02.124Z,101457.17
2018-11-22T19:10:31.594Z,101455.19
2018-11-22T19:13:01.039Z,101459.22
2018-11-22T19:15:30.332Z,101460.27
2018-11-22T19:17:58.649Z,101452.61
2018-11-22T19:20:29.155Z,101456.95
2018-11-22T19:22:57.946Z,101448.91
2018-11-22T19:25:26.077Z,101449.03
2018-11-22T19:28:13.379Z,101449.75
2018-11-22T19:30:42.956Z,101460.17
2018-11-22T19:33:12.708Z,101454.27
2018-11-22T19:35:42.577Z,101446.28
2018-11-22T19:38:10.797Z,101447.77
2018-11-22T19:40:39.517Z,101451.02
2018-11-22T19:43:08.547Z,101450.08
2018-11-22T19:45:38.109Z,101457.20
2018-11-22T19:48:06.754Z,101453.45
2018-11-22T19:50:35.147Z,101453.45
2018-11-22T19:53:04.445Z,101448.79
2018-11-22T19:55:33.553Z,101442.39
2018-11-22T19:58:20.805Z,101444.92
2018-11-22T20:00:49.098Z,101444.24
2018-11-22T20:03:17.140Z,101436.44
2018-11-22T20:05:45.310Z,101440.28
2018-11-22T20:08:15.194Z,101449.32
2018-11-22T20:10:44.330Z,101444.45
2018-11-22T20:13:12.453Z,101449.19
2018-11-22T20:15:40.562Z,101454.24
2018-11-22T20:18:10.124Z,101444.75
2018-11-22T20:20:38.224Z,101447.73
2018-11-22T20:23:06.419Z,101451.70
2018-11-22T20:25:35.148Z,101454.05
2018-11-22T20:28:03.169Z,101453.20
2018-11-22T20:30:50.444Z,101455.21
2018-11-22T20:33:18.594Z,101461.88
2018-11-22T20:35:46.898Z,101454.73
2018-11-22T20:38:15.160Z,101465.81
2018-11-22T20:40:43.407Z,101463.51
2018-11-22T20:43:11.510Z,101459.17
2018-11-22T20:45:41.093Z,101453.59
2018-11-22T20:48:08.099Z,101458.50
2018-11-22T20:50:36.731Z,101459.01
2018-11-22T20:53:05.147Z,101457.20
2018-11-22T20:55:34.783Z,101460.06
2018-11-22T20:58:04.371Z,101468.17
2018-11-22T21:00:33.960Z,101462.83
2018-11-22T21:03:02.036Z,101466.92
2018-11-22T21:05:30.687Z,101465.41
2018-11-22T21:07:58.777Z,101467.88
2018-11-22T21:10:28.142Z,101468.37
2018-11-22T21:12:56.424Z,101471.25
2018-11-22T21:15:25.817Z,101470.49
2018-11-22T21:17:55.731Z,101473.29
2018-11-22T21:20:42.987Z,101476.23
2018-11-22T21:23:11.131Z,101468.68
2018-11-22T21:25:39.200Z,101467.44
2018-11-22T21:28:07.354Z,101464.33
2018-11-22T21:30:36.888Z,101469.23
2018-11-22T21:33:04.996Z,101457.37
2018-11-22T21:35:33.463Z,101469.08
2018-11-22T21:38:02.429Z,101461.86
2018-11-22T21:40:31.182Z,101455.77
2018-11-22T21:42:59.210Z,101457.45
2018-11-22T21:45:27.718Z,101459.19
2018-11-22T21:47:55.864Z,101457.08
2018-11-22T21:50:25.235Z,101464.17
2018-11-22T21:52:53.288Z,101458.34
2018-11-22T21:55:22.747Z,101462.66
2018-11-22T21:57:51.690Z,101457.42
2018-11-22T22:00:40.816Z,101451.00
2018-11-22T22:03:10.379Z,101451.57
2018-11-22T22:05:39.113Z,101452.97
2018-11-22T22:08:07.753Z,101454.66
2018-11-22T22:10:35.911Z,101456.78
2018-11-22T22:13:04.122Z,101452.17
2018-11-22T22:15:33.289Z,101460.56
2018-11-22T22:18:01.535Z,101460.80
2018-11-22T22:20:31.007Z,101459.80
2018-11-22T22:22:59.830Z,101457.91
2018-11-22T22:25:27.628Z,101463.60
2018-11-22T22:27:56.137Z,101454.53
2018-11-22T22:30:43.361Z,101451.01
2018-11-22T22:33:11.469Z,101455.55
2018-11-22T22:35:39.557Z,101456.09
2018-11-22T22:38:07.655Z,101451.70
2018-11-22T22:40:35.721Z,101450.61
2018-11-22T22:43:03.793Z,101443.92
2018-11-22T22:45:32.604Z,101439.45
2018-11-22T22:48:00.696Z,101442.73
2018-11-22T22:50:29.665Z,101442.71
2018-11-22T22:52:58.904Z,101443.04
2018-11-22T22:55:27.394Z,101444.19
2018-11-22T22:57:55.430Z,101451.23
2018-11-22T23:00:43.665Z,101443.10
2018-11-22T23:03:11.770Z,101445.88
2018-11-22T23:05:39.976Z,101444.81
2018-11-22T23:08:08.040Z,101440.80
2018-11-22T23:10:36.136Z,101445.66
2018-11-22T23:13:04.417Z,101446.03
2018-11-22T23:15:32.637Z,101444.32
2018-11-22T23:18:00.727Z,101441.59
2018-11-22T23:20:47.914Z,101433.70
2018-11-22T23:23:16.049Z,101437.15
2018-11-22T23:25:44.100Z,101431.58
2018-11-22T23:28:12.239Z,101438.67
2018-11-22T23:30:40.285Z,101431.81
2018-11-22T23:33:08.994Z,101429.13
2018-11-22T23:35:37.047Z,101424.80
2018-11-22T23:38:05.130Z,101427.65
2018-11-22T23:40:33.905Z,101432.70
2018-11-22T23:43:02.000Z,101428.53
2018-11-22T23:45:31.188Z,101431.77
2018-11-22T23:47:59.253Z,101433.14
2018-11-22T23:50:28.665Z,101437.39
2018-11-22T23:52:57.636Z,101433.15
2018-11-22T23:55:25.707Z,101441.36
2018-11-22T23:57:53.767Z,101440.94
